createdAt,value
2019-02-18T00:01:18.598Z,25.77
2019-02-18T00:03:46.746Z,26.90
2019-02-18T00:06:14.902Z,25.87
2019-02-18T00:08:42.934Z,28.57
2019-02-18T00:11:11.031Z,26.67
2019-02-18T00:13:39.087Z,27.27
2019-02-18T00:16:07.180Z,26.83
2019-02-18T00:18:35.295Z,26.13
2019-02-18T00:21:08.316Z,26.17
2019-02-18T00:23:36.620Z,26.40
2019-02-18T00:26:04.977Z,26.23
2019-02-18T00:28:33.176Z,26.37
2019-02-18T00:31:01.353Z,26.70
2019-02-18T00:33:29.479Z,26.50
2019-02-18T00:35:57.617Z,26.20
2019-02-18T00:38:26.309Z,26.00
2019-02-18T00:40:54.501Z,27.27
2019-02-18T00:43:22.637Z,26.87
2019-02-18T00:45:50.792Z,25.63
2019-02-18T00:48:18.922Z,26.07
2019-02-18T00:50:47.038Z,26.03
2019-02-18T00:53:15.135Z,27.03
2019-02-18T00:55:43.341Z,27.83
2019-02-18T00:58:11.590Z,27.87
2019-02-18T01:00:39.651Z,27.03
2019-02-18T01:03:07.838Z,28.20
2019-02-18T01:05:36.054Z,27.43
2019-02-18T01:08:04.117Z,28.30
2019-02-18T01:10:32.223Z,28.27
2019-02-18T01:13:00.259Z,27.40
2019-02-18T01:15:28.288Z,28.80
2019-02-18T01:17:56.424Z,28.80
2019-02-18T01:20:24.519Z,29.47
2019-02-18T01:22:52.787Z,29.03
2019-02-18T01:25:20.862Z,28.90
2019-02-18T01:27:48.917Z,29.80
2019-02-18T01:30:16.960Z,28.83
2019-02-18T01:32:45.275Z,29.20
2019-02-18T01:35:13.513Z,29.67
2019-02-18T01:37:45.676Z,29.40
2019-02-18T01:40:13.160Z,29.50
2019-02-18T01:42:41.185Z,28.70
2019-02-18T01:45:10.943Z,28.97
2019-02-18T01:47:39.068Z,31.03
2019-02-18T01:50:13.039Z,30.03
2019-02-18T01:52:41.154Z,30.13
2019-02-18T01:55:10.809Z,30.73
2019-02-18T01:57:39.005Z,28.43
2019-02-18T02:00:11.081Z,29.83
2019-02-18T02:02:39.415Z,30.10
2019-02-18T02:05:08.820Z,30.97
2019-02-18T02:07:36.930Z,31.23
2019-02-18T02:10:05.780Z,29.80
2019-02-18T02:12:34.052Z,29.33
2019-02-18T02:15:04.624Z,30.37
2019-02-18T02:17:32.827Z,28.53
2019-02-18T02:20:00.863Z,29.77
2019-02-18T02:22:29.018Z,28.27
2019-02-18T02:24:57.151Z,27.80
2019-02-18T02:27:25.197Z,28.10
2019-02-18T02:29:53.259Z,27.07
2019-02-18T02:32:21.397Z,27.63
2019-02-18T02:34:49.570Z,26.30
2019-02-18T02:37:17.621Z,26.27
2019-02-18T02:39:45.833Z,25.57
2019-02-18T02:42:13.931Z,24.97
2019-02-18T02:44:42.052Z,24.87
2019-02-18T02:47:10.136Z,25.07
2019-02-18T02:49:38.335Z,25.67
2019-02-18T02:52:06.457Z,24.90
2019-02-18T02:54:34.468Z,24.70
2019-02-18T02:57:02.757Z,24.93
2019-02-18T02:59:30.977Z,25.40
2019-02-18T03:01:59.588Z,24.13
2019-02-18T03:04:27.711Z,23.53
2019-02-18T03:06:55.798Z,22.70
2019-02-18T03:09:23.942Z,22.93
2019-02-18T03:11:52.101Z,23.03
2019-02-18T03:14:20.228Z,22.50
2019-02-18T03:16:48.421Z,23.17
2019-02-18T03:19:16.657Z,23.73
2019-02-18T03:21:45.038Z,21.60
2019-02-18T03:24:13.116Z,22.80
2019-02-18T03:26:41.236Z,22.57
2019-02-18T03:30:03.764Z,21.33
2019-02-18T03:32:43.026Z,20.97
2019-02-18T03:35:11.078Z,21.63
2019-02-18T03:37:39.473Z,20.13
2019-02-18T03:40:13.113Z,21.57
2019-02-18T03:42:41.800Z,20.53
2019-02-18T03:45:10.033Z,21.47
2019-02-18T03:47:38.146Z,20.30
2019-02-18T03:50:06.522Z,19.90
2019-02-18T03:52:34.670Z,19.90
2019-02-18T03:55:03.091Z,19.37
2019-02-18T03:57:31.172Z,20.67
2019-02-18T03:59:59.371Z,19.30
2019-02-18T04:02:27.469Z,19.43
2019-02-18T04:04:55.551Z,20.07
2019-02-18T04:07:23.684Z,19.57
2019-02-18T04:09:52.801Z,20.37
2019-02-18T04:12:20.951Z,20.00
2019-02-18T04:14:49.205Z,18.80
2019-02-18T04:17:17.379Z,19.73
2019-02-18T04:19:45.455Z,18.63
2019-02-18T04:22:13.676Z,20.57
2019-02-18T04:24:41.822Z,19.23
2019-02-18T04:27:09.911Z,20.07
2019-02-18T04:29:39.118Z,19.80
2019-02-18T04:32:07.199Z,19.87
2019-02-18T04:34:35.404Z,18.60
2019-02-18T04:37:03.553Z,18.43
2019-02-18T04:39:32.003Z,18.73
2019-02-18T04:42:00.227Z,19.77
2019-02-18T04:44:28.276Z,18.80
2019-02-18T04:46:56.310Z,17.70
2019-02-18T04:49:24.466Z,18.63
2019-02-18T04:51:52.499Z,19.27
2019-02-18T04:54:20.640Z,19.60
2019-02-18T04:56:48.772Z,18.47
2019-02-18T04:59:16.873Z,18.40
2019-02-18T05:01:45.151Z,19.17
2019-02-18T05:04:14.181Z,19.10
2019-02-18T05:06:43.549Z,18.97
2019-02-18T05:09:11.814Z,18.50
2019-02-18T05:11:39.996Z,17.90
2019-02-18T05:14:08.152Z,18.67
2019-02-18T05:16:36.436Z,18.07
2019-02-18T05:19:04.509Z,19.07
2019-02-18T05:21:32.535Z,18.27
2019-02-18T05:24:00.591Z,18.63
2019-02-18T05:26:28.932Z,18.67
2019-02-18T05:28:57.016Z,18.60
2019-02-18T05:31:25.078Z,18.23
2019-02-18T05:33:53.312Z,19.00
2019-02-18T05:36:21.338Z,18.60
2019-02-18T05:38:49.530Z,19.10
2019-02-18T05:41:17.670Z,18.90
2019-02-18T05:43:45.765Z,18.07
2019-02-18T05:46:13.881Z,18.30
2019-02-18T05:48:42.095Z,19.50
2019-02-18T05:51:10.211Z,18.37
2019-02-18T05:53:38.368Z,18.97
2019-02-18T05:56:06.462Z,19.30
2019-02-18T05:58:34.460Z,19.80
2019-02-18T06:01:02.661Z,19.40
2019-02-18T06:03:30.705Z,18.27
2019-02-18T06:05:58.869Z,18.97
2019-02-18T06:08:27.128Z,18.40
2019-02-18T06:10:55.271Z,18.43
2019-02-18T06:13:25.408Z,18.80
2019-02-18T06:15:53.398Z,19.13
2019-02-18T06:18:21.551Z,18.60
2019-02-18T06:20:49.665Z,18.23
2019-02-18T06:23:17.787Z,19.07
2019-02-18T06:25:45.959Z,18.50
2019-02-18T06:28:13.995Z,18.60
2019-02-18T06:30:42.117Z,18.07
2019-02-18T06:33:10.228Z,19.17
2019-02-18T06:35:38.349Z,18.27
2019-02-18T06:38:06.506Z,18.93
2019-02-18T06:40:34.667Z,18.97
2019-02-18T06:43:03.892Z,18.37
2019-02-18T06:45:38.773Z,18.13
2019-02-18T06:48:35.442Z,18.37
2019-02-18T06:51:03.648Z,18.97
2019-02-18T06:53:31.793Z,18.60
2019-02-18T06:55:59.962Z,18.00
2019-02-18T06:58:35.602Z,19.67
2019-02-18T07:01:26.001Z,18.03
2019-02-18T07:04:13.660Z,19.13
2019-02-18T07:06:54.129Z,19.33
2019-02-18T07:09:31.184Z,19.10
2019-02-18T07:12:04.606Z,19.20
2019-02-18T07:14:32.722Z,19.63
2019-02-18T07:17:00.958Z,20.97
2019-02-18T07:19:30.298Z,21.00
2019-02-18T07:21:58.483Z,22.20
2019-02-18T07:24:26.695Z,21.70
2019-02-18T07:26:54.800Z,23.13
2019-02-18T07:29:22.990Z,22.43
2019-02-18T07:31:51.066Z,23.33
2019-02-18T07:34:19.087Z,21.97
2019-02-18T07:36:47.318Z,22.80
2019-02-18T07:39:15.450Z,23.30
2019-02-18T07:41:43.706Z,22.17
2019-02-18T07:44:11.891Z,22.37
2019-02-18T07:46:40.215Z,21.00
2019-02-18T07:49:08.385Z,20.30
2019-02-18T07:51:36.497Z,20.83
2019-02-18T07:54:04.640Z,19.80
2019-02-18T07:56:32.681Z,19.53
2019-02-18T07:59:00.986Z,19.30
2019-02-18T08:01:29.034Z,18.60
2019-02-18T08:03:57.110Z,19.30
2019-02-18T08:06:25.363Z,18.70
2019-02-18T08:08:53.537Z,18.00
2019-02-18T08:11:22.656Z,17.20
2019-02-18T08:13:50.823Z,18.17
2019-02-18T08:16:18.887Z,18.63
2019-02-18T08:18:47.228Z,19.03
2019-02-18T08:21:16.228Z,17.67
2019-02-18T08:23:44.357Z,17.37
2019-02-18T08:26:15.287Z,17.90
2019-02-18T08:28:43.349Z,17.90
2019-02-18T08:31:11.577Z,16.90
2019-02-18T08:33:39.641Z,17.07
2019-02-18T08:36:07.815Z,16.70
2019-02-18T08:38:35.940Z,17.67
2019-02-18T08:41:04.163Z,16.60
2019-02-18T08:43:32.439Z,16.47
2019-02-18T08:46:02.627Z,17.70
2019-02-18T08:48:30.817Z,16.30
2019-02-18T08:50:58.865Z,16.37
2019-02-18T08:53:26.867Z,16.50
2019-02-18T08:55:54.936Z,17.50
2019-02-18T08:58:22.977Z,17.10
2019-02-18T09:00:51.056Z,16.63
2019-02-18T09:03:19.148Z,17.70
2019-02-18T09:05:47.175Z,17.03
2019-02-18T09:08:15.191Z,16.70
2019-02-18T09:10:43.219Z,17.70
2019-02-18T09:13:11.337Z,16.13
2019-02-18T09:15:39.548Z,17.73
2019-02-18T09:18:07.718Z,16.93
2019-02-18T09:20:35.892Z,17.20
2019-02-18T09:23:21.838Z,17.23
2019-02-18T09:25:54.210Z,16.90
2019-02-18T09:28:23.402Z,16.73
2019-02-18T09:30:53.664Z,16.37
2019-02-18T09:33:21.710Z,16.57
2019-02-18T09:35:49.747Z,16.97
2019-02-18T09:38:24.780Z,17.50
2019-02-18T09:40:51.430Z,17.80
2019-02-18T09:43:19.177Z,16.83
2019-02-18T09:45:47.229Z,18.67
2019-02-18T09:48:15.340Z,16.47
2019-02-18T09:50:44.666Z,18.00
2019-02-18T09:53:12.879Z,17.93
2019-02-18T09:55:41.017Z,18.17
2019-02-18T09:58:09.300Z,16.90
2019-02-18T10:00:37.673Z,17.83
2019-02-18T10:03:05.747Z,17.47
2019-02-18T10:05:33.973Z,17.90
2019-02-18T10:08:02.159Z,17.97
2019-02-18T10:10:30.340Z,17.43
2019-02-18T10:12:59.680Z,17.40
2019-02-18T10:15:27.952Z,18.10
2019-02-18T10:17:55.979Z,16.97
2019-02-18T10:20:24.197Z,18.20
2019-02-18T10:22:52.201Z,17.93
2019-02-18T10:25:20.324Z,17.17
2019-02-18T10:27:48.700Z,16.33
2019-02-18T10:30:16.808Z,17.93
2019-02-18T10:32:45.075Z,15.87
2019-02-18T10:35:13.213Z,17.37
2019-02-18T10:37:41.585Z,17.37
2019-02-18T10:40:10.114Z,17.10
2019-02-18T10:42:39.344Z,17.27
2019-02-18T10:45:09.288Z,17.27
2019-02-18T10:47:38.000Z,17.33
2019-02-18T10:50:07.575Z,16.73
2019-02-18T10:52:35.902Z,17.07
2019-02-18T10:55:03.997Z,18.13
2019-02-18T10:57:32.174Z,18.40
2019-02-18T11:00:00.389Z,19.67
2019-02-18T11:02:28.540Z,19.77
2019-02-18T11:04:56.612Z,19.50
2019-02-18T11:07:27.190Z,18.23
2019-02-18T11:09:55.389Z,17.53
2019-02-18T11:12:23.530Z,19.30
2019-02-18T11:14:51.612Z,18.00
2019-02-18T11:17:19.772Z,19.83
2019-02-18T11:19:48.100Z,20.43
2019-02-18T11:22:16.987Z,20.00
2019-02-18T11:24:45.266Z,19.17
2019-02-18T11:27:13.397Z,20.10
2019-02-18T11:29:41.470Z,19.90
2019-02-18T11:32:09.491Z,19.50
2019-02-18T11:34:37.655Z,20.07
2019-02-18T11:37:06.142Z,19.20
2019-02-18T11:39:34.232Z,18.07
2019-02-18T11:42:02.294Z,17.90
2019-02-18T11:44:30.412Z,17.50
2019-02-18T11:46:58.482Z,17.90
2019-02-18T11:49:26.718Z,17.50
2019-02-18T11:51:55.025Z,18.43
2019-02-18T11:54:23.099Z,16.83
2019-02-18T11:56:51.248Z,17.67
2019-02-18T11:59:24.201Z,18.07
2019-02-18T12:01:49.332Z,17.43
2019-02-18T12:04:17.544Z,17.57
2019-02-18T12:06:45.618Z,18.27
2019-02-18T12:09:13.975Z,17.90
2019-02-18T12:11:42.183Z,17.87
2019-02-18T12:14:10.245Z,18.87
2019-02-18T12:16:38.370Z,18.20
2019-02-18T12:19:07.617Z,17.50
2019-02-18T12:21:35.830Z,18.73
2019-02-18T12:24:03.918Z,19.00
2019-02-18T12:26:32.371Z,18.43
2019-02-18T12:29:00.653Z,18.40
2019-02-18T12:31:28.796Z,18.67
2019-02-18T12:33:56.873Z,19.57
2019-02-18T12:36:24.978Z,20.03
2019-02-18T12:38:53.086Z,18.50
2019-02-18T12:41:21.248Z,19.87
2019-02-18T12:43:49.478Z,18.80
2019-02-18T12:46:17.527Z,20.40
2019-02-18T12:48:45.784Z,18.83
2019-02-18T12:51:15.339Z,18.87
2019-02-18T12:53:46.090Z,18.53
2019-02-18T12:56:13.673Z,19.63
2019-02-18T12:58:42.054Z,18.73
2019-02-18T13:01:10.419Z,19.73
2019-02-18T13:03:38.593Z,18.60
2019-02-18T13:06:06.732Z,18.13
2019-02-18T13:08:34.942Z,18.63
2019-02-18T13:11:03.202Z,19.57
2019-02-18T13:13:31.450Z,18.97
2019-02-18T13:15:59.691Z,19.47
2019-02-18T13:18:28.309Z,19.60
2019-02-18T13:20:56.560Z,19.77
2019-02-18T13:23:24.808Z,19.40
2019-02-18T13:25:53.085Z,18.63
2019-02-18T13:28:21.270Z,20.30
2019-02-18T13:30:49.560Z,19.37
2019-02-18T13:33:18.696Z,19.40
2019-02-18T13:35:46.856Z,19.07
2019-02-18T13:38:15.229Z,19.03
2019-02-18T13:40:43.467Z,19.40
2019-02-18T13:43:11.635Z,18.97
2019-02-18T13:45:39.803Z,19.40
2019-02-18T13:48:08.066Z,18.37
2019-02-18T13:50:36.278Z,18.33
2019-02-18T13:53:04.791Z,18.43
2019-02-18T13:55:33.005Z,18.23
2019-02-18T13:58:01.122Z,18.10
2019-02-18T14:00:30.900Z,17.67
2019-02-18T14:02:59.122Z,17.67
2019-02-18T14:05:27.246Z,18.83
2019-02-18T14:07:55.367Z,18.00
2019-02-18T14:10:23.474Z,18.03
2019-02-18T14:12:51.582Z,17.53
2019-02-18T14:15:20.464Z,18.87
2019-02-18T14:17:50.486Z,17.63
2019-02-18T14:20:18.899Z,18.47
2019-02-18T14:22:47.077Z,18.27
2019-02-18T14:25:15.400Z,17.77
2019-02-18T14:27:43.475Z,18.27
2019-02-18T14:30:13.030Z,18.50
2019-02-18T14:32:41.341Z,18.07
2019-02-18T14:35:10.013Z,19.07
2019-02-18T14:37:38.211Z,18.37
2019-02-18T14:40:08.269Z,17.43
2019-02-18T14:42:36.655Z,18.57
2019-02-18T14:45:05.158Z,17.93
2019-02-18T14:47:34.540Z,18.23
2019-02-18T14:50:02.833Z,18.73
2019-02-18T14:52:31.114Z,17.63
2019-02-18T14:54:59.263Z,18.73
2019-02-18T14:57:27.526Z,18.20
2019-02-18T14:59:55.580Z,18.23
2019-02-18T15:02:23.808Z,17.77
2019-02-18T15:04:51.900Z,18.53
2019-02-18T15:07:20.264Z,19.37
2019-02-18T15:09:48.606Z,19.43
2019-02-18T15:12:18.187Z,17.97
2019-02-18T15:14:46.363Z,19.43
2019-02-18T15:17:14.568Z,17.80
2019-02-18T15:19:42.727Z,18.97
2019-02-18T15:22:10.797Z,18.20
2019-02-18T15:24:38.930Z,18.23
2019-02-18T15:27:07.629Z,17.93
2019-02-18T15:29:35.834Z,18.67
2019-02-18T15:32:04.289Z,17.90
2019-02-18T15:34:32.378Z,18.03
2019-02-18T15:37:00.965Z,17.00
2019-02-18T15:39:29.321Z,18.07
2019-02-18T15:41:57.363Z,18.40
2019-02-18T15:44:25.919Z,17.87
2019-02-18T15:46:54.221Z,17.60
2019-02-18T15:49:23.016Z,17.70
2019-02-18T15:51:52.051Z,17.67
2019-02-18T15:54:20.914Z,17.50
2019-02-18T15:56:49.183Z,17.33
2019-02-18T15:59:19.644Z,17.23
2019-02-18T16:01:47.825Z,17.50
2019-02-18T16:04:16.610Z,17.27
2019-02-18T16:06:44.977Z,16.70
2019-02-18T16:09:13.130Z,16.77
2019-02-18T16:11:41.391Z,16.27
2019-02-18T16:14:09.558Z,16.43
2019-02-18T16:16:37.938Z,17.70
2019-02-18T16:19:06.065Z,18.53
2019-02-18T16:21:34.242Z,17.87
2019-02-18T16:24:02.694Z,18.57
2019-02-18T16:26:31.084Z,18.07
2019-02-18T16:28:59.270Z,17.87
2019-02-18T16:31:41.168Z,17.40
2019-02-18T16:34:12.895Z,18.00
2019-02-18T16:36:41.131Z,16.77
2019-02-18T16:39:10.365Z,16.83
2019-02-18T16:41:38.580Z,17.03
2019-02-18T16:44:06.990Z,16.93
2019-02-18T16:46:35.165Z,16.30
2019-02-18T16:49:03.610Z,17.97
2019-02-18T16:51:31.784Z,16.17
2019-02-18T16:53:59.856Z,17.47
2019-02-18T16:56:27.897Z,16.93
2019-02-18T16:58:56.081Z,17.33
2019-02-18T17:01:24.651Z,16.67
2019-02-18T17:03:53.944Z,16.73
2019-02-18T17:06:22.059Z,17.03
2019-02-18T17:08:50.251Z,16.73
2019-02-18T17:11:18.310Z,18.13
2019-02-18T17:13:46.507Z,17.70
2019-02-18T17:16:14.990Z,17.77
2019-02-18T17:18:44.230Z,19.13
2019-02-18T17:21:13.364Z,18.37
2019-02-18T17:23:41.502Z,17.83
2019-02-18T17:26:09.780Z,18.43
2019-02-18T17:28:38.042Z,16.97
2019-02-18T17:31:06.188Z,17.77
2019-02-18T17:33:34.286Z,18.20
2019-02-18T17:36:02.551Z,17.60
2019-02-18T17:38:30.738Z,17.40
2019-02-18T17:40:59.161Z,18.00
2019-02-18T17:43:29.546Z,18.97
2019-02-18T17:45:57.878Z,18.40
2019-02-18T17:48:26.464Z,19.23
2019-02-18T17:50:54.658Z,18.57
2019-02-18T17:53:22.926Z,18.50
2019-02-18T17:55:51.048Z,19.30
2019-02-18T17:58:19.146Z,18.40
2019-02-18T18:00:49.633Z,18.70
2019-02-18T18:03:17.884Z,19.10
2019-02-18T18:05:46.083Z,20.07
2019-02-18T18:08:14.216Z,20.63
2019-02-18T18:10:42.370Z,19.70
2019-02-18T18:13:10.557Z,19.10
2019-02-18T18:15:40.109Z,18.60
2019-02-18T18:18:08.923Z,19.73
2019-02-18T18:20:37.443Z,19.33
2019-02-18T18:23:06.383Z,18.53
2019-02-18T18:25:34.692Z,19.37
2019-02-18T18:28:03.012Z,19.27
2019-02-18T18:30:31.051Z,20.33
2019-02-18T18:32:59.112Z,18.53
2019-02-18T18:35:27.310Z,18.93
2019-02-18T18:37:55.785Z,18.60
2019-02-18T18:40:43.398Z,19.57
2019-02-18T18:43:11.779Z,18.93
2019-02-18T18:45:40.027Z,19.03
2019-02-18T18:48:09.178Z,20.50
2019-02-18T18:50:38.689Z,19.13
2019-02-18T18:53:07.219Z,19.50
2019-02-18T18:55:35.431Z,18.77
2019-02-18T18:58:03.919Z,20.57
2019-02-18T19:00:34.706Z,19.57
2019-02-18T19:03:03.401Z,20.50
2019-02-18T19:05:31.562Z,19.60
2019-02-18T19:08:00.267Z,20.03
2019-02-18T19:10:29.168Z,18.97
2019-02-18T19:12:58.155Z,20.77
2019-02-18T19:15:27.263Z,20.73
2019-02-18T19:17:56.814Z,20.77
2019-02-18T19:20:26.004Z,19.40
2019-02-18T19:22:54.756Z,20.33
2019-02-18T19:25:23.749Z,19.67
2019-02-18T19:27:52.356Z,19.97
2019-02-18T19:30:23.891Z,20.83
2019-02-18T19:32:52.341Z,20.33
2019-02-18T19:35:23.798Z,20.30
2019-02-18T19:37:52.343Z,21.10
2019-02-18T19:40:21.459Z,20.10
2019-02-18T19:42:49.847Z,20.23
2019-02-18T19:45:19.442Z,20.93
2019-02-18T19:47:47.723Z,20.20
2019-02-18T19:50:18.132Z,20.20
2019-02-18T19:52:46.615Z,20.97
2019-02-18T19:55:14.787Z,22.30
2019-02-18T19:57:43.198Z,22.60
2019-02-18T20:00:14.144Z,19.70
2019-02-18T20:02:43.268Z,21.00
2019-02-18T20:05:12.101Z,20.47
2019-02-18T20:07:40.841Z,20.47
2019-02-18T20:10:09.496Z,21.50
2019-02-18T20:12:37.868Z,20.53
2019-02-18T20:15:06.523Z,19.63
2019-02-18T20:17:34.703Z,20.57
2019-02-18T20:20:03.086Z,21.90
2019-02-18T20:22:31.416Z,20.43
2019-02-18T20:24:59.483Z,20.30
2019-02-18T20:27:27.553Z,20.53
2019-02-18T20:29:55.610Z,21.43
2019-02-18T20:32:24.015Z,21.07
2019-02-18T20:34:52.034Z,21.87
2019-02-18T20:37:20.132Z,22.40
2019-02-18T20:39:48.249Z,22.83
2019-02-18T20:42:17.081Z,22.97
2019-02-18T20:44:45.259Z,23.87
2019-02-18T20:47:13.800Z,22.13
2019-02-18T20:49:41.933Z,23.60
2019-02-18T20:52:10.185Z,21.13
2019-02-18T20:54:38.342Z,19.83
2019-02-18T20:57:06.455Z,20.63
2019-02-18T20:59:34.605Z,20.00
2019-02-18T21:02:02.706Z,19.70
2019-02-18T21:04:30.855Z,18.23
2019-02-18T21:06:58.964Z,18.90
2019-02-18T21:09:28.125Z,19.33
2019-02-18T21:11:56.235Z,18.43
2019-02-18T21:14:24.597Z,18.70
2019-02-18T21:16:52.713Z,19.07
2019-02-18T21:19:21.212Z,17.67
2019-02-18T21:21:49.364Z,17.70
2019-02-18T21:24:17.519Z,18.60
2019-02-18T21:26:45.658Z,17.97
2019-02-18T21:29:13.880Z,17.67
2019-02-18T21:31:41.948Z,17.53
2019-02-18T21:34:10.993Z,16.83
2019-02-18T21:36:39.107Z,17.87
2019-02-18T21:39:11.879Z,18.70
2019-02-18T21:41:40.785Z,17.13
2019-02-18T21:44:09.036Z,17.33
2019-02-18T21:46:37.122Z,17.63
2019-02-18T21:49:05.266Z,17.40
2019-02-18T21:51:33.777Z,16.33
2019-02-18T21:54:01.825Z,16.87
2019-02-18T21:56:29.926Z,17.10
2019-02-18T21:58:58.061Z,18.70
2019-02-18T22:01:27.663Z,18.50
2019-02-18T22:03:55.884Z,16.53
2019-02-18T22:06:24.239Z,17.80
2019-02-18T22:08:52.308Z,17.53
2019-02-18T22:11:20.379Z,17.37
2019-02-18T22:13:49.484Z,18.43
2019-02-18T22:16:17.755Z,17.10
2019-02-18T22:18:46.072Z,15.97
2019-02-18T22:21:14.202Z,17.07
2019-02-18T22:23:42.777Z,17.73
2019-02-18T22:26:10.905Z,16.63
2019-02-18T22:28:38.975Z,17.03
2019-02-18T22:31:07.033Z,16.67
2019-02-18T22:33:35.265Z,16.03
2019-02-18T22:36:03.622Z,16.60
2019-02-18T22:38:31.799Z,17.57
2019-02-18T22:41:00.341Z,16.20
2019-02-18T22:43:28.389Z,16.97
2019-02-18T22:45:56.498Z,16.53
2019-02-18T22:48:24.538Z,16.70
2019-02-18T22:50:52.804Z,17.07
2019-02-18T22:53:20.948Z,17.87
2019-02-18T22:55:49.331Z,17.33
2019-02-18T22:58:17.939Z,17.33
2019-02-18T23:00:57.806Z,17.00
2019-02-18T23:03:25.984Z,17.37
2019-02-18T23:05:54.011Z,16.27
2019-02-18T23:08:22.410Z,17.10
2019-02-18T23:10:50.542Z,17.43
2019-02-18T23:13:19.171Z,17.57
2019-02-18T23:15:47.405Z,16.70
2019-02-18T23:18:16.146Z,17.53
2019-02-18T23:20:44.769Z,18.13
2019-02-18T23:23:12.956Z,17.50
2019-02-18T23:25:41.070Z,18.00
2019-02-18T23:28:09.305Z,18.50
2019-02-18T23:30:38.950Z,18.40
2019-02-18T23:33:07.535Z,18.07
2019-02-18T23:35:35.623Z,17.37
2019-02-18T23:38:03.681Z,17.90
2019-02-18T23:40:31.748Z,17.87
2019-02-18T23:42:59.869Z,17.90
2019-02-18T23:45:28.318Z,17.83
2019-02-18T23:47:56.420Z,17.80
2019-02-18T23:50:24.609Z,17.90
2019-02-18T23:52:52.697Z,17.97
2019-02-18T23:55:28.182Z,19.20
2019-02-18T23:57:53.621Z,17.87
